Sharon, California
Current Conditions -  °F | °C
As of 12:53 PM on Friday 19 Dec 2014 (Local Time) from KMAE Reporting Station
Broken Clouds Broken Clouds  
Wind Chill: 55°   Ceiling: 12000
Heat Index: 55°   Visibility: 10mi
Dew Point: 46°   Wind: 12mph
Humidity: 72%   Direction: 120°ESE
Pressure: 30.18"   Gusts: NA
Location:  37.1043°N, 120.246°W
Report Text: KMAE 192053Z AUTO 12010KT 10SM FEW060 SCT090 BKN120 13/08 A3018 RMK AO2 SLP221 T01280078
Loading
Personal Weather Stations






























Interactive Weather Map New forecast layout! Learn more

10-Day Weather Forecast

Advertisements
Track Severe Weather on mobile